Terminal Aerodrome Forecast
Issued by NWS Sterling, VA

Current Version | Previous Version | Graphics & Text | Print | Product List | Glossary On
Versions: 1 2 3 4 5 6 7 8 9 10 11 12 13 14 15 16 17 18 19 20 21 22 23
399
FTUS41 KLWX 262330
TAFDCA
TAF
KDCA 262330Z 2700/2724 17009KT P6SM -SHRA OVC035
     FM270500 20008KT P6SM -SHRA BKN008 OVC025
     FM270700 24006KT 5SM -SHRA BR BKN015 OVC025
     FM271300 33005KT P6SM BKN045 BKN050
     FM271700 20004KT P6SM BKN045 BKN250
     FM271800 17004KT P6SM FEW050=

USA.gov is the U.S. government's official web portal to all federal, state and local government web resources and services.